Aviation Digital Data Service (ADDS)

Output produced by METARs form (0053 UTC 24 May 2022)
found at http://www.aviationweather.gov/metar/data/
 
MNBL 232158Z 2400/2424 10006KT 9999 FEW016CB SCT070 
     TEMPO 2403/2409 600 DZ/-TSRA SCT018CB 
     BECMG 2413/2418 07010KT BKN018 
     TEMPO 2419/2423 7000 DZ/RA
       
MNMG 232158Z 2400/2424 13004KT 9999 FEW022CB 
     TEMPO 2405/2412 00000KT 7000 DZ/-TSRA FEW023CB 
     BECMG 2413/2420 09008KT 9000 HZ FEW022CB SCT070 
     BECMG 2421/2423 14010KT 9999 SCT022
       
MNPC 232158Z 2400/2424 07008KT 9999 BKN016 SCT300 
     TEMPO 2405/2412 7000 DZ/-TSRA FEW014CB BKN016 
     BECMG 2413/2419 07010KT BKN017 
     TEMPO 2420/2423 7000 HZ/VCRA